createdAt,value
2018-07-20T00:03:46.428Z,6.30
2018-07-20T00:06:21.230Z,6.73
2018-07-20T00:09:14.322Z,6.30
2018-07-20T00:11:50.994Z,7.77
2018-07-20T00:14:27.522Z,6.97
2018-07-20T00:17:20.001Z,6.47
2018-07-20T00:20:01.693Z,7.30
2018-07-20T00:22:40.106Z,7.77
2018-07-20T00:25:29.065Z,6.63
2018-07-20T00:28:06.568Z,6.40
2018-07-20T00:30:42.105Z,6.63
2018-07-20T00:33:24.607Z,5.57
2018-07-20T00:36:09.352Z,6.20
2018-07-20T00:38:54.863Z,6.47
2018-07-20T00:41:42.413Z,6.23
2018-07-20T00:44:26.907Z,6.50
2018-07-20T00:47:31.930Z,6.00
2018-07-20T00:50:08.921Z,6.20
2018-07-20T00:55:35.007Z,7.03
2018-07-20T00:58:17.236Z,6.53
2018-07-20T01:00:59.724Z,6.40
2018-07-20T01:06:16.953Z,6.23
2018-07-20T01:12:27.131Z,7.37
2018-07-20T01:15:29.969Z,7.70
2018-07-20T01:18:11.237Z,6.80
2018-07-20T01:26:56.121Z,6.33
2018-07-20T01:29:37.693Z,6.47
2018-07-20T01:32:23.172Z,6.50
2018-07-20T01:41:19.589Z,6.60
2018-07-20T01:44:41.114Z,7.10
2018-07-20T01:47:26.769Z,6.77
2018-07-20T01:50:09.367Z,7.50
2018-07-20T01:53:04.268Z,7.00
2018-07-20T01:55:57.799Z,6.90
2018-07-20T01:58:38.195Z,7.53
2018-07-20T02:01:19.602Z,7.03
2018-07-20T02:04:02.226Z,6.40
2018-07-20T02:07:12.178Z,7.67
2018-07-20T02:09:54.864Z,7.20
2018-07-20T02:12:38.484Z,6.77
2018-07-20T02:18:16.349Z,7.37
2018-07-20T02:32:07.249Z,7.40
2018-07-20T02:35:04.454Z,7.53
2018-07-20T02:37:52.799Z,7.33
2018-07-20T02:40:56.131Z,7.37
2018-07-20T02:43:29.866Z,7.27
2018-07-20T02:46:13.700Z,7.60
2018-07-20T02:54:05.006Z,7.87
2018-07-20T02:57:13.993Z,8.27
2018-07-20T02:59:53.461Z,7.47
2018-07-20T03:05:09.327Z,8.10
2018-07-20T03:07:38.051Z,7.60
2018-07-20T03:10:06.745Z,8.10
2018-07-20T03:12:35.377Z,8.73
2018-07-20T03:15:03.993Z,8.07
2018-07-20T03:17:32.690Z,8.70
2018-07-20T03:20:01.319Z,7.80
2018-07-20T03:22:30.028Z,7.90
2018-07-20T03:24:59.324Z,7.83
2018-07-20T03:27:28.103Z,6.40
2018-07-20T03:29:56.852Z,6.90
2018-07-20T03:32:25.516Z,7.20
2018-07-20T03:34:54.126Z,6.03
2018-07-20T03:37:22.861Z,7.37
2018-07-20T03:39:51.483Z,6.90
2018-07-20T03:42:20.187Z,6.00
2018-07-20T03:44:49.094Z,6.73
2018-07-20T03:47:17.700Z,7.40
2018-07-20T03:49:46.522Z,8.37
2018-07-20T03:52:15.284Z,7.70
2018-07-20T03:54:43.978Z,7.77
2018-07-20T03:57:13.020Z,6.00
2018-07-20T03:59:41.649Z,6.00
2018-07-20T04:02:10.564Z,6.33
2018-07-20T04:04:39.240Z,7.40
2018-07-20T04:07:07.902Z,6.63
2018-07-20T04:09:36.641Z,6.80
2018-07-20T04:12:05.309Z,7.17
2018-07-20T04:14:33.922Z,7.23
2018-07-20T04:17:02.548Z,6.70
2018-07-20T04:19:31.172Z,7.90
2018-07-20T04:21:59.773Z,7.90
2018-07-20T04:24:28.641Z,7.33
2018-07-20T04:26:57.215Z,7.57
2018-07-20T04:29:25.925Z,6.90
2018-07-20T04:34:47.841Z,6.90
2018-07-20T04:37:16.524Z,7.73
2018-07-20T04:39:45.233Z,8.03
2018-07-20T04:42:13.982Z,7.80
2018-07-20T04:44:42.785Z,8.50
2018-07-20T04:47:12.592Z,8.60
2018-07-20T04:49:41.312Z,7.70
2018-07-20T04:52:09.933Z,8.37
2018-07-20T04:54:38.652Z,8.40
2018-07-20T04:57:07.339Z,8.43
2018-07-20T04:59:35.997Z,8.17
2018-07-20T05:02:04.833Z,8.10
2018-07-20T05:04:33.653Z,8.50
2018-07-20T05:07:02.678Z,8.63
2018-07-20T05:09:31.464Z,8.73
2018-07-20T05:12:00.231Z,8.20
2018-07-20T05:14:29.021Z,8.07
2018-07-20T05:16:57.880Z,8.60
2018-07-20T05:19:26.727Z,8.50
2018-07-20T05:21:55.781Z,7.70
2018-07-20T05:24:26.975Z,8.67
2018-07-20T05:26:59.522Z,7.47
2018-07-20T05:29:28.353Z,6.60
2018-07-20T05:34:40.776Z,6.80
2018-07-20T05:37:09.409Z,7.00
2018-07-20T05:39:38.136Z,7.43
2018-07-20T05:42:06.896Z,7.63
2018-07-20T05:44:35.633Z,7.50
2018-07-20T05:47:04.336Z,7.00
2018-07-20T05:49:33.119Z,6.70
2018-07-20T05:52:01.795Z,6.77
2018-07-20T05:54:30.607Z,8.27
2018-07-20T05:56:59.881Z,10.43
2018-07-20T05:59:28.643Z,7.60
2018-07-20T06:01:57.486Z,8.43
2018-07-20T06:04:26.188Z,7.50
2018-07-20T06:06:54.892Z,8.30
2018-07-20T06:09:23.579Z,7.47
2018-07-20T06:11:52.293Z,6.80
2018-07-20T06:14:21.380Z,8.47
2018-07-20T06:16:50.231Z,7.50
2018-07-20T06:19:19.066Z,7.90
2018-07-20T06:21:48.370Z,8.03
2018-07-20T06:24:17.432Z,7.77
2018-07-20T06:26:46.810Z,8.10
2018-07-20T06:29:15.994Z,8.63
2018-07-20T06:31:44.696Z,7.63
2018-07-20T06:34:13.417Z,8.30
2018-07-20T06:36:42.116Z,6.80
2018-07-20T06:39:12.387Z,6.67
2018-07-20T06:41:41.613Z,6.60
2018-07-20T06:44:10.564Z,6.70
2018-07-20T06:46:39.288Z,5.70
2018-07-20T06:49:16.385Z,8.60
2018-07-20T06:51:55.629Z,10.03
2018-07-20T06:54:24.732Z,7.23
2018-07-20T06:56:54.306Z,6.33
2018-07-20T06:59:25.146Z,6.20
2018-07-20T07:01:54.298Z,6.93
2018-07-20T07:04:29.214Z,7.37
2018-07-20T07:06:59.340Z,6.23
2018-07-20T07:09:28.877Z,6.63
2018-07-20T07:12:01.234Z,6.97
2018-07-20T07:14:39.407Z,6.90
2018-07-20T07:17:17.861Z,6.40
2018-07-20T07:19:46.926Z,7.80
2018-07-20T07:22:21.629Z,7.00
2018-07-20T07:25:05.108Z,7.13
2018-07-20T07:27:49.485Z,5.80
2018-07-20T07:30:32.548Z,7.40
2018-07-20T07:33:04.594Z,5.87
2018-07-20T07:35:56.090Z,6.50
2018-07-20T07:38:35.970Z,6.93
2018-07-20T07:41:21.533Z,6.53
2018-07-20T07:43:56.846Z,8.47
2018-07-20T07:46:47.410Z,7.50
2018-07-20T07:49:20.678Z,6.93
2018-07-20T07:52:05.361Z,6.67
2018-07-20T07:54:58.703Z,6.93
2018-07-20T07:57:52.920Z,7.37
2018-07-20T08:00:52.906Z,6.90
2018-07-20T08:03:37.223Z,7.20
2018-07-20T08:06:06.687Z,5.13
2018-07-20T08:08:35.265Z,6.60
2018-07-20T08:11:04.227Z,5.67
2018-07-20T08:13:33.107Z,6.40
2018-07-20T08:16:03.146Z,6.90
2018-07-20T08:18:31.928Z,5.63
2018-07-20T08:21:01.786Z,6.30
2018-07-20T08:23:30.437Z,8.97
2018-07-20T08:25:59.325Z,6.30
2018-07-20T08:28:27.964Z,5.10
2018-07-20T08:30:56.760Z,6.10
2018-07-20T08:33:25.452Z,11.93
2018-07-20T08:35:54.413Z,6.00
2018-07-20T08:38:23.047Z,5.30
2018-07-20T08:40:52.922Z,9.10
2018-07-20T08:43:21.604Z,6.77
2018-07-20T08:45:50.511Z,5.77
2018-07-20T08:48:19.239Z,6.10
2018-07-20T08:50:47.895Z,4.77
2018-07-20T08:53:16.563Z,8.00
2018-07-20T08:55:45.109Z,9.70
2018-07-20T08:58:13.894Z,6.10
2018-07-20T09:00:42.633Z,5.40
2018-07-20T09:03:11.296Z,5.17
2018-07-20T09:05:39.957Z,5.00
2018-07-20T09:08:08.772Z,4.77
2018-07-20T09:10:37.581Z,5.10
2018-07-20T09:13:06.354Z,5.30
2018-07-20T09:15:35.193Z,9.70
2018-07-20T09:18:03.862Z,7.27
2018-07-20T09:20:32.615Z,5.77
2018-07-20T09:23:01.339Z,5.60
2018-07-20T09:25:29.872Z,5.23
2018-07-20T09:27:58.768Z,4.27
2018-07-20T09:30:27.524Z,5.30
2018-07-20T09:32:56.169Z,5.60
2018-07-20T09:35:24.761Z,5.13
2018-07-20T09:37:53.366Z,5.20
2018-07-20T09:40:22.006Z,4.50
2018-07-20T09:42:50.879Z,5.30
2018-07-20T09:45:19.384Z,6.23
2018-07-20T09:47:47.940Z,5.67
2018-07-20T09:50:16.600Z,5.30
2018-07-20T09:52:45.263Z,5.37
2018-07-20T09:55:13.895Z,4.97
2018-07-20T09:57:42.829Z,5.37
2018-07-20T10:00:11.456Z,4.73
2018-07-20T10:02:40.039Z,4.97
2018-07-20T10:05:08.975Z,4.40
2018-07-20T10:07:37.575Z,4.90
2018-07-20T10:10:06.269Z,5.20
2018-07-20T10:12:34.958Z,5.77
2018-07-20T10:15:03.565Z,6.40
2018-07-20T10:17:32.335Z,5.40
2018-07-20T10:20:00.932Z,5.53
2018-07-20T10:22:29.543Z,7.63
2018-07-20T10:24:58.322Z,5.67
2018-07-20T10:27:27.340Z,5.80
2018-07-20T10:30:40.309Z,6.63
2018-07-20T10:33:42.080Z,5.03
2018-07-20T10:36:10.914Z,5.20
2018-07-20T10:38:39.579Z,5.80
2018-07-20T10:41:08.539Z,4.40
2018-07-20T10:43:37.334Z,5.00
2018-07-20T10:46:06.022Z,5.83
2018-07-20T10:48:34.686Z,5.27
2018-07-20T10:51:03.219Z,4.67
2018-07-20T10:53:31.798Z,5.37
2018-07-20T10:56:00.464Z,5.30
2018-07-20T10:58:29.261Z,4.90
2018-07-20T11:00:58.028Z,5.00
2018-07-20T11:03:58.817Z,6.00
2018-07-20T11:06:27.594Z,5.90
2018-07-20T11:08:56.210Z,5.40
2018-07-20T11:11:24.872Z,7.30
2018-07-20T11:16:46.606Z,7.37
2018-07-20T11:19:15.384Z,5.20
2018-07-20T11:21:44.074Z,5.07
2018-07-20T11:24:12.955Z,5.20
2018-07-20T11:26:41.588Z,4.77
2018-07-20T11:29:10.355Z,5.37
2018-07-20T11:31:39.047Z,5.20
2018-07-20T11:34:07.827Z,4.70
2018-07-20T11:36:36.522Z,4.87
2018-07-20T11:39:07.608Z,5.20
2018-07-20T11:41:36.394Z,5.53
2018-07-20T11:44:05.350Z,5.67
2018-07-20T11:46:34.024Z,5.03
2018-07-20T11:49:02.793Z,6.33
2018-07-20T11:51:31.369Z,5.93
2018-07-20T11:53:59.986Z,4.90
2018-07-20T11:56:28.758Z,5.27
2018-07-20T11:58:57.369Z,5.30
2018-07-20T12:01:26.085Z,4.97
2018-07-20T12:03:54.667Z,5.67
2018-07-20T12:06:23.273Z,21.07
2018-07-20T12:08:52.139Z,5.77
2018-07-20T12:11:20.728Z,4.83
2018-07-20T12:13:49.726Z,4.60
2018-07-20T12:16:18.259Z,4.10
2018-07-20T12:18:46.842Z,4.77
2018-07-20T12:21:15.831Z,5.43
2018-07-20T12:23:44.472Z,5.60
2018-07-20T12:26:13.056Z,4.00
2018-07-20T12:28:41.645Z,3.93
2018-07-20T12:31:10.314Z,3.77
2018-07-20T12:33:39.026Z,4.63
2018-07-20T12:36:07.624Z,4.00
2018-07-20T12:38:36.217Z,4.53
2018-07-20T12:41:04.787Z,4.10
2018-07-20T12:43:33.456Z,4.10
2018-07-20T12:46:02.034Z,4.50
2018-07-20T12:48:30.679Z,3.70
2018-07-20T12:50:59.383Z,3.80
2018-07-20T12:53:27.982Z,4.30
2018-07-20T12:55:57.038Z,4.20
2018-07-20T12:58:25.684Z,3.90
2018-07-20T13:00:54.294Z,3.77
2018-07-20T13:03:22.955Z,3.90
2018-07-20T13:05:51.754Z,3.70
2018-07-20T13:08:20.600Z,3.83
2018-07-20T13:10:49.390Z,3.87
2018-07-20T13:13:18.149Z,4.00
2018-07-20T13:15:46.915Z,4.03
2018-07-20T13:18:15.677Z,3.80
2018-07-20T13:20:44.142Z,4.17
2018-07-20T13:23:12.987Z,3.90
2018-07-20T13:25:41.561Z,4.20
2018-07-20T13:28:10.315Z,3.60
2018-07-20T13:30:39.041Z,3.57
2018-07-20T13:33:08.687Z,3.60
2018-07-20T13:35:37.760Z,4.20
2018-07-20T13:38:07.904Z,3.93
2018-07-20T13:40:38.205Z,3.67
2018-07-20T13:43:06.990Z,3.67
2018-07-20T13:45:35.795Z,3.70
2018-07-20T13:48:04.420Z,3.70
2018-07-20T13:50:33.144Z,4.40
2018-07-20T13:53:01.862Z,3.73
2018-07-20T13:55:30.736Z,3.73
2018-07-20T13:58:00.140Z,3.40
2018-07-20T14:00:28.952Z,4.10
2018-07-20T14:02:57.592Z,4.10
2018-07-20T14:05:26.293Z,3.77
2018-07-20T14:07:55.080Z,3.40
2018-07-20T14:10:25.002Z,3.57
2018-07-20T14:12:53.813Z,4.00
2018-07-20T14:15:22.611Z,3.93
2018-07-20T14:17:51.382Z,4.17
2018-07-20T14:20:20.278Z,3.50
2018-07-20T14:22:48.965Z,4.00
2018-07-20T14:25:17.668Z,3.47
2018-07-20T14:27:46.509Z,3.30
2018-07-20T14:30:15.160Z,3.40
2018-07-20T14:32:44.005Z,3.83
2018-07-20T14:35:12.801Z,3.80
2018-07-20T14:37:41.915Z,3.27
2018-07-20T14:40:10.665Z,3.50
2018-07-20T14:42:39.401Z,3.77
2018-07-20T14:45:08.846Z,3.80
2018-07-20T14:47:37.678Z,4.37
2018-07-20T14:50:07.100Z,3.90
2018-07-20T14:52:35.923Z,4.00
2018-07-20T14:55:05.039Z,3.73
2018-07-20T14:57:33.910Z,3.90
2018-07-20T15:00:03.813Z,4.03
2018-07-20T15:02:32.433Z,4.53
2018-07-20T15:05:01.282Z,4.57
2018-07-20T15:07:30.028Z,4.03
2018-07-20T15:09:58.786Z,4.13
2018-07-20T15:12:27.626Z,4.30
2018-07-20T15:14:56.463Z,3.90
2018-07-20T15:17:25.396Z,4.40
2018-07-20T15:19:54.252Z,4.50
2018-07-20T15:22:23.018Z,4.80
2018-07-20T15:24:51.762Z,4.47
2018-07-20T15:27:20.493Z,4.77
2018-07-20T15:29:50.611Z,5.07
2018-07-20T15:32:19.431Z,4.90
2018-07-20T15:34:48.296Z,4.77
2018-07-20T15:37:16.954Z,4.47
2018-07-20T15:39:45.659Z,4.23
2018-07-20T15:42:14.559Z,5.20
2018-07-20T15:44:43.184Z,4.87
2018-07-20T15:47:11.932Z,4.90
2018-07-20T15:49:40.670Z,4.80
2018-07-20T15:54:38.348Z,4.60
2018-07-20T15:57:07.184Z,4.57
2018-07-20T15:59:35.918Z,5.00
2018-07-20T16:02:04.800Z,5.77
2018-07-20T16:04:33.463Z,5.40
2018-07-20T16:07:02.161Z,5.00
2018-07-20T16:09:30.989Z,5.10
2018-07-20T16:11:59.636Z,5.30
2018-07-20T16:14:28.381Z,5.50
2018-07-20T16:16:56.948Z,4.60
2018-07-20T16:19:25.642Z,6.13
2018-07-20T16:21:54.302Z,6.90
2018-07-20T16:24:22.961Z,6.70
2018-07-20T16:26:51.748Z,6.63
2018-07-20T16:29:20.750Z,6.80
2018-07-20T16:31:49.676Z,6.60
2018-07-20T16:34:18.382Z,6.93
2018-07-20T16:36:47.227Z,6.67
2018-07-20T16:39:16.142Z,7.17
2018-07-20T16:41:45.069Z,7.63
2018-07-20T16:44:14.315Z,6.97
2018-07-20T16:46:43.681Z,7.97
2018-07-20T16:49:12.509Z,6.70
2018-07-20T16:51:41.790Z,6.60
2018-07-20T16:54:10.540Z,7.00
2018-07-20T16:56:39.423Z,6.47
2018-07-20T16:59:08.172Z,7.10
2018-07-20T17:01:37.013Z,5.37
2018-07-20T17:04:05.953Z,5.80
2018-07-20T17:06:34.667Z,5.30
2018-07-20T17:09:04.030Z,5.43
2018-07-20T17:11:32.673Z,5.10
2018-07-20T17:14:01.367Z,4.90
2018-07-20T17:16:30.250Z,5.90
2018-07-20T17:18:58.891Z,4.90
2018-07-20T17:21:28.743Z,5.13
2018-07-20T17:23:57.614Z,5.43
2018-07-20T17:26:26.551Z,5.13
2018-07-20T17:28:55.567Z,5.50
2018-07-20T17:31:24.189Z,5.37
2018-07-20T17:33:53.956Z,5.30
2018-07-20T17:36:22.838Z,6.30
2018-07-20T17:38:51.879Z,5.47
2018-07-20T17:41:20.862Z,5.50
2018-07-20T17:43:49.789Z,5.90
2018-07-20T17:46:18.975Z,4.73
2018-07-20T17:48:47.892Z,5.60
2018-07-20T17:51:16.841Z,5.10
2018-07-20T17:53:45.599Z,5.53
2018-07-20T17:56:14.777Z,5.00
2018-07-20T17:58:43.686Z,5.10
2018-07-20T18:01:12.315Z,4.20
2018-07-20T18:03:41.167Z,6.20
2018-07-20T18:06:09.907Z,5.30
2018-07-20T18:08:38.719Z,5.40
2018-07-20T18:11:07.493Z,4.80
2018-07-20T18:13:36.259Z,5.50
2018-07-20T18:16:05.073Z,5.43
2018-07-20T18:18:33.870Z,4.80
2018-07-20T18:21:02.757Z,5.53
2018-07-20T18:23:31.539Z,5.40
2018-07-20T18:26:00.287Z,5.30
2018-07-20T18:28:29.071Z,5.03
2018-07-20T18:30:57.778Z,4.40
2018-07-20T18:33:26.546Z,5.27
2018-07-20T18:35:55.388Z,5.10
2018-07-20T18:38:24.141Z,4.50
2018-07-20T18:40:52.823Z,4.77
2018-07-20T18:43:21.618Z,5.83
2018-07-20T18:45:50.588Z,5.00
2018-07-20T18:48:19.503Z,4.83
2018-07-20T18:50:48.460Z,6.90
2018-07-20T18:53:17.455Z,4.50
2018-07-20T18:55:46.318Z,5.83
2018-07-20T18:58:15.039Z,5.30
2018-07-20T19:00:44.867Z,4.37
2018-07-20T19:03:13.759Z,5.13
2018-07-20T19:05:42.421Z,5.67
2018-07-20T19:08:11.171Z,5.63
2018-07-20T19:10:39.798Z,6.00
2018-07-20T19:13:09.506Z,5.70
2018-07-20T19:15:38.486Z,5.97
2018-07-20T19:18:07.319Z,6.10
2018-07-20T19:20:44.160Z,5.30
2018-07-20T19:23:13.114Z,6.30
2018-07-20T19:25:41.893Z,5.33
2018-07-20T19:28:10.751Z,5.70
2018-07-20T19:30:39.432Z,5.73
2018-07-20T19:33:08.260Z,5.90
2018-07-20T19:35:37.126Z,5.47
2018-07-20T19:38:06.046Z,5.60
2018-07-20T19:40:34.780Z,5.90
2018-07-20T19:43:03.551Z,6.10
2018-07-20T19:45:32.517Z,5.90
2018-07-20T19:48:01.433Z,6.00
2018-07-20T19:50:30.328Z,5.80
2018-07-20T19:52:59.182Z,6.13
2018-07-20T19:55:28.329Z,6.00
2018-07-20T19:57:57.215Z,6.60
2018-07-20T20:00:26.098Z,6.10
2018-07-20T20:02:54.948Z,7.03
2018-07-20T20:05:24.658Z,7.27
2018-07-20T20:07:53.452Z,7.20
2018-07-20T20:10:23.191Z,5.80
2018-07-20T20:12:51.988Z,6.20
2018-07-20T20:15:20.865Z,6.83
2018-07-20T20:17:50.064Z,5.73
2018-07-20T20:20:18.867Z,6.10
2018-07-20T20:22:47.502Z,5.87
2018-07-20T20:25:16.081Z,6.80
2018-07-20T20:27:44.799Z,5.93
2018-07-20T20:30:13.589Z,6.27
2018-07-20T20:32:42.350Z,6.13
2018-07-20T20:35:11.209Z,6.73
2018-07-20T20:37:39.966Z,6.40
2018-07-20T20:40:09.567Z,5.70
2018-07-20T20:42:38.339Z,6.73
2018-07-20T20:45:07.663Z,6.17
2018-07-20T20:47:36.320Z,6.53
2018-07-20T20:50:05.812Z,6.37
2018-07-20T20:52:34.718Z,6.47
2018-07-20T20:55:03.436Z,6.23
2018-07-20T20:57:32.096Z,7.20
2018-07-20T21:00:00.689Z,6.60
2018-07-20T21:02:29.412Z,7.03
2018-07-20T21:04:58.059Z,7.30
2018-07-20T21:07:26.810Z,6.73
2018-07-20T21:09:55.451Z,7.57
2018-07-20T21:12:24.152Z,7.60
2018-07-20T21:14:53.071Z,7.97
2018-07-20T21:17:21.908Z,7.80
2018-07-20T21:19:50.758Z,7.70
2018-07-20T21:22:19.488Z,6.87
2018-07-20T21:24:48.285Z,6.77
2018-07-20T21:27:16.983Z,6.87
2018-07-20T21:29:45.641Z,6.87
2018-07-20T21:32:14.568Z,6.40
2018-07-20T21:34:43.381Z,6.50
2018-07-20T21:37:12.021Z,5.87
2018-07-20T21:39:40.834Z,6.37
2018-07-20T21:42:09.439Z,6.70
2018-07-20T21:44:38.069Z,6.43
2018-07-20T21:47:07.931Z,6.63
2018-07-20T21:49:36.793Z,6.70
2018-07-20T21:52:05.467Z,6.27
2018-07-20T21:54:34.056Z,6.73
2018-07-20T21:57:02.977Z,6.77
2018-07-20T21:59:31.637Z,7.40
2018-07-20T22:02:00.251Z,7.93
2018-07-20T22:04:29.159Z,6.97
2018-07-20T22:06:57.837Z,7.10
2018-07-20T22:09:26.714Z,6.90
2018-07-20T22:11:55.381Z,6.87
2018-07-20T22:14:24.296Z,7.07
2018-07-20T22:16:52.932Z,7.67
2018-07-20T22:19:21.873Z,6.07
2018-07-20T22:21:50.616Z,6.17
2018-07-20T22:24:19.345Z,7.00
2018-07-20T22:26:48.090Z,7.17
2018-07-20T22:29:16.695Z,7.47
2018-07-20T22:31:45.446Z,8.00
2018-07-20T22:34:14.339Z,6.57
2018-07-20T22:36:43.208Z,7.87
2018-07-20T22:39:13.131Z,6.47
2018-07-20T22:41:42.042Z,8.70
2018-07-20T22:44:10.856Z,6.73
2018-07-20T22:46:39.582Z,7.63
2018-07-20T22:49:08.442Z,8.03
2018-07-20T22:51:37.150Z,7.97
2018-07-20T22:54:06.000Z,5.90
2018-07-20T22:56:34.823Z,7.83
2018-07-20T22:59:03.647Z,6.67
2018-07-20T23:01:32.335Z,6.97
2018-07-20T23:04:01.067Z,8.50
2018-07-20T23:06:29.690Z,9.23
2018-07-20T23:08:58.468Z,8.93
2018-07-20T23:11:27.243Z,7.60
2018-07-20T23:13:55.999Z,9.57
2018-07-20T23:16:24.746Z,8.93
2018-07-20T23:18:53.641Z,9.37
2018-07-20T23:21:22.488Z,8.70
2018-07-20T23:23:51.220Z,9.53
2018-07-20T23:26:19.801Z,9.40
2018-07-20T23:28:48.384Z,10.27
2018-07-20T23:31:17.072Z,16.93
2018-07-20T23:33:45.829Z,13.43
2018-07-20T23:36:14.504Z,12.30
2018-07-20T23:38:43.189Z,7.60
2018-07-20T23:41:11.911Z,9.10
2018-07-20T23:43:42.386Z,11.90
2018-07-20T23:46:11.032Z,11.10
2018-07-20T23:48:39.690Z,10.60
2018-07-20T23:51:10.825Z,12.33
2018-07-20T23:53:51.966Z,10.60
2018-07-20T23:56:20.721Z,10.00
2018-07-20T23:58:49.276Z,11.40
